createdAt,value
2022-12-27T00:00:07.919Z,45712.00
2022-12-27T00:02:40.661Z,45710.00
2022-12-27T00:05:08.983Z,45706.00
2022-12-27T00:07:35.725Z,45718.00
2022-12-27T00:10:02.237Z,45720.00
2022-12-27T00:12:29.663Z,45708.00
2022-12-27T00:14:56.044Z,45720.00
2022-12-27T00:17:22.471Z,45720.00
2022-12-27T00:19:48.855Z,45729.97
2022-12-27T00:22:15.224Z,45706.00
2022-12-27T00:24:41.812Z,45724.00
2022-12-27T00:27:08.218Z,45722.00
2022-12-27T00:29:34.717Z,45682.00
2022-12-27T00:32:01.360Z,45704.00
2022-12-27T00:34:27.882Z,45700.00
2022-12-27T00:36:54.313Z,45716.00
2022-12-27T00:39:20.681Z,45696.00
2022-12-27T00:41:47.135Z,45718.00
2022-12-27T00:44:13.625Z,45722.00
2022-12-27T00:46:40.008Z,45714.00
2022-12-27T00:49:06.863Z,45722.00
2022-12-27T00:51:33.274Z,45694.00
2022-12-27T00:54:00.408Z,45712.00
2022-12-27T00:56:29.325Z,45710.00
2022-12-27T00:58:58.233Z,45729.97
2022-12-27T01:01:28.026Z,45712.00
2022-12-27T01:03:55.926Z,45708.00
2022-12-27T01:06:25.770Z,45714.00
2022-12-27T01:08:52.283Z,45700.00
2022-12-27T01:11:19.112Z,45702.00
2022-12-27T01:13:46.324Z,45692.00
2022-12-27T01:16:20.169Z,45714.00
2022-12-27T01:18:47.460Z,45718.00
2022-12-27T01:21:17.662Z,45718.00
2022-12-27T01:23:45.303Z,45694.00
2022-12-27T01:26:14.969Z,45698.00
2022-12-27T01:28:41.664Z,45722.00
2022-12-27T01:31:13.457Z,45692.00
2022-12-27T01:33:40.516Z,45700.00
2022-12-27T01:36:11.826Z,45698.00
2022-12-27T01:38:38.409Z,45678.03
2022-12-27T01:41:25.642Z,45698.00
2022-12-27T01:43:53.053Z,45682.00
2022-12-27T01:46:19.457Z,45700.00
2022-12-27T01:48:46.550Z,45702.00
2022-12-27T01:51:14.015Z,45690.00
2022-12-27T01:53:43.999Z,45714.00
2022-12-27T01:56:31.268Z,45712.00
2022-12-27T01:59:02.396Z,45706.00
2022-12-27T02:01:40.028Z,45690.00
2022-12-27T02:04:10.423Z,45698.00
2022-12-27T02:06:39.253Z,45716.00
2022-12-27T02:09:29.865Z,45706.00
2022-12-27T02:11:57.899Z,45700.00
2022-12-27T02:14:34.255Z,45706.00
2022-12-27T02:17:04.590Z,45702.00
2022-12-27T02:19:40.137Z,45725.97
2022-12-27T02:22:31.305Z,45684.00
2022-12-27T02:25:32.965Z,45710.00
2022-12-27T02:28:11.227Z,45714.00
2022-12-27T02:30:38.345Z,45702.00
2022-12-27T02:33:13.751Z,45724.00
2022-12-27T02:35:44.566Z,45714.00
2022-12-27T02:38:16.001Z,45718.00
2022-12-27T02:41:04.103Z,45735.97
2022-12-27T02:43:50.402Z,45722.00
2022-12-27T02:46:44.059Z,45712.00
2022-12-27T02:49:50.480Z,45704.00
2022-12-27T02:53:07.978Z,45706.00
2022-12-27T02:56:12.055Z,45690.00
2022-12-27T02:59:09.685Z,45692.00
2022-12-27T03:02:05.653Z,45718.00
2022-12-27T03:04:54.064Z,45706.00
2022-12-27T03:07:47.457Z,45698.00
2022-12-27T03:10:45.246Z,45714.00
2022-12-27T03:13:35.149Z,45696.00
2022-12-27T03:16:18.281Z,45714.00
2022-12-27T03:18:56.549Z,45702.00
2022-12-27T03:21:55.854Z,45714.00
2022-12-27T03:24:46.817Z,45718.00
2022-12-27T03:27:19.919Z,45710.00
2022-12-27T03:30:11.346Z,45716.00
2022-12-27T03:33:09.074Z,45710.00
2022-12-27T03:35:43.641Z,45706.00
2022-12-27T03:38:13.762Z,45698.00
2022-12-27T03:41:16.222Z,45702.00
2022-12-27T03:43:42.637Z,45714.00
2022-12-27T03:46:38.277Z,45710.00
2022-12-27T03:49:28.154Z,45698.00
2022-12-27T03:52:21.027Z,45702.00
2022-12-27T03:54:50.813Z,45694.00
2022-12-27T03:57:20.796Z,45698.00
2022-12-27T03:59:47.405Z,45712.00
2022-12-27T04:02:14.167Z,45702.00
2022-12-27T04:04:40.957Z,45690.00
2022-12-27T04:07:07.671Z,45718.00
2022-12-27T04:09:52.503Z,45690.00
2022-12-27T04:12:37.302Z,45725.97
2022-12-27T04:15:22.608Z,45706.00
2022-12-27T04:18:08.090Z,45712.00
2022-12-27T04:20:53.141Z,45706.00
2022-12-27T04:23:38.064Z,45710.00
2022-12-27T04:26:23.379Z,45710.00
2022-12-27T04:29:08.864Z,45694.00
2022-12-27T04:31:53.656Z,45700.00
2022-12-27T04:34:38.586Z,45710.00
2022-12-27T04:37:05.063Z,45722.00
2022-12-27T04:39:32.320Z,45706.00
2022-12-27T04:42:17.340Z,45708.00
2022-12-27T04:45:02.243Z,45686.00
2022-12-27T04:47:48.219Z,45690.00
2022-12-27T04:51:13.465Z,45702.00
2022-12-27T04:53:58.363Z,45702.00
2022-12-27T04:56:24.910Z,45698.00
2022-12-27T04:59:10.233Z,45690.00
2022-12-27T05:01:55.630Z,45725.97
2022-12-27T05:04:22.914Z,45696.00
2022-12-27T05:06:49.661Z,45706.00
2022-12-27T05:09:34.689Z,45698.00
2022-12-27T05:12:19.473Z,45702.00
2022-12-27T05:14:46.904Z,45694.00
2022-12-27T05:17:13.515Z,45688.00
2022-12-27T05:19:40.016Z,45722.00
2022-12-27T05:22:25.100Z,45686.00
2022-12-27T05:25:09.968Z,45706.00
2022-12-27T05:27:37.092Z,45714.00
2022-12-27T05:30:04.175Z,45694.00
2022-12-27T05:32:30.568Z,45686.00
2022-12-27T05:34:56.961Z,45690.00
2022-12-27T05:37:23.334Z,45686.00
2022-12-27T05:39:49.709Z,45706.00
2022-12-27T05:42:16.665Z,45714.00
2022-12-27T05:44:43.060Z,45704.00
2022-12-27T05:47:09.734Z,45706.00
2022-12-27T05:49:36.153Z,45690.00
2022-12-27T05:52:02.678Z,45706.00
2022-12-27T05:54:29.199Z,45718.00
2022-12-27T05:56:55.627Z,45694.00
2022-12-27T05:59:22.155Z,45724.00
2022-12-27T06:01:49.102Z,45700.00
2022-12-27T06:04:15.764Z,45708.00
2022-12-27T06:06:42.241Z,45706.00
2022-12-27T06:09:08.856Z,45704.00
2022-12-27T06:11:35.308Z,45702.00
2022-12-27T06:14:01.664Z,45690.00
2022-12-27T06:16:28.070Z,45696.00
2022-12-27T06:18:55.034Z,45682.00
2022-12-27T06:21:22.089Z,45688.00
2022-12-27T06:23:49.005Z,45698.00
2022-12-27T06:26:17.133Z,45710.00
2022-12-27T06:28:43.735Z,45706.00
2022-12-27T06:31:10.646Z,45690.00
2022-12-27T06:33:37.268Z,45725.97
2022-12-27T06:36:12.677Z,45686.00
2022-12-27T06:38:39.517Z,45718.00
2022-12-27T06:41:08.328Z,45706.00
2022-12-27T06:43:35.392Z,45698.00
2022-12-27T06:46:04.748Z,45710.00
2022-12-27T06:48:31.690Z,45729.97
2022-12-27T06:50:58.395Z,45690.00
2022-12-27T06:53:25.065Z,45706.00
2022-12-27T06:55:51.448Z,45694.00
2022-12-27T06:58:17.813Z,45722.00
2022-12-27T07:00:44.302Z,45692.00
2022-12-27T07:03:10.728Z,45725.97
2022-12-27T07:05:38.030Z,45714.00
2022-12-27T07:08:05.263Z,45718.00
2022-12-27T07:10:31.734Z,45710.00
2022-12-27T07:12:58.282Z,45704.00
2022-12-27T07:15:24.707Z,45720.00
2022-12-27T07:17:51.196Z,45714.00
2022-12-27T07:20:17.600Z,45706.00
2022-12-27T07:22:44.335Z,45733.97
2022-12-27T07:25:10.746Z,45696.00
2022-12-27T07:27:37.676Z,45729.97
2022-12-27T07:30:06.173Z,45694.00
2022-12-27T07:32:32.587Z,45714.00
2022-12-27T07:34:59.755Z,45694.00
2022-12-27T07:37:26.150Z,45702.00
2022-12-27T07:39:52.583Z,45698.00
2022-12-27T07:42:18.968Z,45712.00
2022-12-27T07:44:45.757Z,45718.00
2022-12-27T07:47:12.170Z,45698.00
2022-12-27T07:49:38.636Z,45722.00
2022-12-27T07:52:05.072Z,45694.00
2022-12-27T07:54:31.694Z,45725.97
2022-12-27T07:56:58.085Z,45722.00
2022-12-27T07:59:24.747Z,45714.00
2022-12-27T08:02:06.301Z,45712.00
2022-12-27T08:04:35.736Z,45706.00
2022-12-27T08:07:11.690Z,45718.00
2022-12-27T08:09:40.691Z,45698.00
2022-12-27T08:12:08.211Z,45708.00
2022-12-27T08:14:35.004Z,45712.00
2022-12-27T08:17:05.881Z,45718.00
2022-12-27T08:19:32.401Z,45710.00
2022-12-27T08:21:58.897Z,45718.00
2022-12-27T08:24:25.456Z,45702.00
2022-12-27T08:26:51.849Z,45702.00
2022-12-27T08:29:18.595Z,45706.00
2022-12-27T08:31:45.061Z,45692.00
2022-12-27T08:34:11.747Z,45694.00
2022-12-27T08:39:24.636Z,45710.00
2022-12-27T08:41:53.909Z,45698.00
2022-12-27T08:44:20.371Z,45725.97
2022-12-27T08:46:47.218Z,45692.00
2022-12-27T08:49:13.626Z,45702.00
2022-12-27T08:51:41.395Z,45698.00
2022-12-27T08:54:08.918Z,45710.00
2022-12-27T08:56:35.676Z,45700.00
2022-12-27T08:59:02.632Z,45722.00
2022-12-27T09:01:29.157Z,45708.00
2022-12-27T09:03:55.893Z,45690.00
2022-12-27T09:06:23.882Z,45710.00
2022-12-27T09:08:54.437Z,45678.03
2022-12-27T09:11:23.770Z,45694.00
2022-12-27T09:13:50.681Z,45718.00
2022-12-27T09:16:20.029Z,45708.00
2022-12-27T09:18:49.570Z,45686.00
2022-12-27T09:21:17.512Z,45704.00
2022-12-27T09:23:44.384Z,45702.00
2022-12-27T09:26:12.130Z,45698.00
2022-12-27T09:28:39.100Z,45696.00
2022-12-27T09:31:06.446Z,45704.00
2022-12-27T09:33:33.047Z,45678.03
2022-12-27T09:36:08.136Z,45698.00
2022-12-27T09:38:36.072Z,45654.03
2022-12-27T09:41:07.058Z,45682.00
2022-12-27T09:44:00.074Z,45664.03
2022-12-27T09:46:48.493Z,45694.00
2022-12-27T09:49:20.329Z,45676.03
2022-12-27T09:51:57.981Z,45676.03
2022-12-27T09:54:42.727Z,45666.03
2022-12-27T09:57:20.652Z,45712.00
2022-12-27T09:59:50.035Z,45670.03
2022-12-27T10:02:23.974Z,45674.03
2022-12-27T10:05:19.081Z,45692.00
2022-12-27T10:08:01.623Z,45672.03
2022-12-27T10:10:38.223Z,45654.03
2022-12-27T10:13:23.064Z,45678.03
2022-12-27T10:16:11.390Z,45674.03
2022-12-27T10:19:04.137Z,45684.00
2022-12-27T10:21:37.275Z,45690.00
2022-12-27T10:24:20.667Z,45676.03
2022-12-27T10:26:47.116Z,45670.03
2022-12-27T10:29:32.818Z,45658.03
2022-12-27T10:31:59.294Z,45668.03
2022-12-27T10:34:26.165Z,45662.03
2022-12-27T10:36:53.066Z,45686.00
2022-12-27T10:39:32.274Z,45666.03
2022-12-27T10:42:15.528Z,45650.03
2022-12-27T10:44:41.977Z,45648.03
2022-12-27T10:47:08.477Z,45650.03
2022-12-27T10:49:36.185Z,45670.03
2022-12-27T10:52:08.793Z,45644.03
2022-12-27T10:54:48.700Z,45662.03
2022-12-27T10:57:25.743Z,45646.03
2022-12-27T11:00:22.450Z,45648.03
2022-12-27T11:02:58.449Z,45652.03
2022-12-27T11:05:31.325Z,45634.06
2022-12-27T11:07:57.966Z,45618.06
2022-12-27T11:10:27.802Z,45648.03
2022-12-27T11:12:59.460Z,45644.03
2022-12-27T11:15:29.537Z,45638.06
2022-12-27T11:18:00.302Z,45622.06
2022-12-27T11:20:44.660Z,45626.06
2022-12-27T11:23:17.732Z,45598.06
2022-12-27T11:25:54.828Z,45610.06
2022-12-27T11:28:35.153Z,45634.06
2022-12-27T11:31:05.937Z,45610.06
2022-12-27T11:33:52.002Z,45618.06
2022-12-27T11:36:28.725Z,45598.06
2022-12-27T11:38:55.735Z,45612.06
2022-12-27T11:41:48.903Z,45610.06
2022-12-27T11:44:26.803Z,45602.06
2022-12-27T11:46:59.493Z,45606.06
2022-12-27T11:49:34.684Z,45586.09
2022-12-27T11:52:43.245Z,45594.09
2022-12-27T11:55:47.111Z,45600.06
2022-12-27T11:58:38.497Z,45602.06
2022-12-27T12:01:33.447Z,45590.09
2022-12-27T12:04:16.483Z,45592.09
2022-12-27T12:06:59.035Z,45592.09
2022-12-27T12:09:37.446Z,45586.09
2022-12-27T12:12:27.883Z,45588.09
2022-12-27T12:15:22.666Z,45590.09
2022-12-27T12:18:14.248Z,45596.06
2022-12-27T12:21:24.520Z,45594.09
2022-12-27T12:24:14.869Z,45610.06
2022-12-27T12:27:10.428Z,45602.06
2022-12-27T12:29:58.730Z,45606.06
2022-12-27T12:32:35.863Z,45598.06
2022-12-27T12:35:22.889Z,45596.06
2022-12-27T12:38:04.391Z,45612.06
2022-12-27T12:40:54.041Z,45604.06
2022-12-27T12:43:33.228Z,45596.06
2022-12-27T12:46:20.691Z,45578.09
2022-12-27T12:48:47.036Z,45594.09
2022-12-27T12:51:28.326Z,45606.06
2022-12-27T12:54:21.154Z,45588.09
2022-12-27T12:57:02.957Z,45586.09
2022-12-27T12:59:57.597Z,45614.06
2022-12-27T13:02:58.544Z,45608.06
2022-12-27T13:05:46.203Z,45598.06
2022-12-27T13:08:35.331Z,45598.06
2022-12-27T13:11:27.652Z,45582.09
2022-12-27T13:14:19.704Z,45614.06
2022-12-27T13:16:58.188Z,45600.06
2022-12-27T13:19:34.927Z,45578.09
2022-12-27T13:22:12.441Z,45602.06
2022-12-27T13:25:06.006Z,45606.06
2022-12-27T13:27:47.888Z,45614.06
2022-12-27T13:30:24.133Z,45578.09
2022-12-27T13:33:03.126Z,45594.09
2022-12-27T13:35:48.559Z,45602.06
2022-12-27T13:38:49.372Z,45602.06
2022-12-27T13:41:31.200Z,45616.06
2022-12-27T13:44:00.391Z,45602.06
2022-12-27T13:46:38.144Z,45580.09
2022-12-27T13:49:36.452Z,45600.06
2022-12-27T13:52:15.359Z,45598.06
2022-12-27T13:55:12.901Z,45604.06
2022-12-27T13:58:00.892Z,45612.06
2022-12-27T14:00:41.027Z,45614.06
2022-12-27T14:03:26.253Z,45596.06
2022-12-27T14:06:14.411Z,45604.06
2022-12-27T14:08:50.340Z,45602.06
2022-12-27T14:11:37.134Z,45598.06
2022-12-27T14:14:05.451Z,45594.09
2022-12-27T14:16:35.864Z,45610.06
2022-12-27T14:19:29.771Z,45604.06
2022-12-27T14:22:10.860Z,45588.09
2022-12-27T14:25:05.114Z,45614.06
2022-12-27T14:28:21.930Z,45588.09
2022-12-27T14:31:25.926Z,45624.06
2022-12-27T14:34:11.118Z,45600.06
2022-12-27T14:37:12.334Z,45622.06
2022-12-27T14:39:56.887Z,45598.06
2022-12-27T14:42:55.087Z,45602.06
2022-12-27T14:45:56.970Z,45610.06
2022-12-27T14:48:45.385Z,45618.06
2022-12-27T14:52:00.705Z,45614.06
2022-12-27T14:55:05.626Z,45614.06
2022-12-27T14:58:07.659Z,45618.06
2022-12-27T15:01:11.140Z,45606.06
2022-12-27T15:04:03.943Z,45606.06
2022-12-27T15:06:53.328Z,45626.06
2022-12-27T15:09:33.587Z,45604.06
2022-12-27T15:12:21.315Z,45584.09
2022-12-27T15:14:55.043Z,45606.06
2022-12-27T15:17:39.749Z,45628.06
2022-12-27T15:20:24.874Z,45624.06
2022-12-27T15:23:24.772Z,45616.06
2022-12-27T15:26:00.862Z,45626.06
2022-12-27T15:28:37.498Z,45622.06
2022-12-27T15:31:26.533Z,45622.06
2022-12-27T15:34:07.207Z,45622.06
2022-12-27T15:36:41.628Z,45632.06
2022-12-27T15:39:33.566Z,45602.06
2022-12-27T15:42:33.043Z,45622.06
2022-12-27T15:45:28.015Z,45614.06
2022-12-27T15:48:03.526Z,45598.06
2022-12-27T15:50:44.333Z,45604.06
2022-12-27T15:53:35.597Z,45618.06
2022-12-27T15:56:26.423Z,45610.06
2022-12-27T15:59:34.892Z,45626.06
2022-12-27T16:02:24.739Z,45634.06
2022-12-27T16:05:02.571Z,45610.06
2022-12-27T16:07:44.836Z,45610.06
2022-12-27T16:10:30.117Z,45618.06
2022-12-27T16:13:08.810Z,45618.06
2022-12-27T16:15:44.904Z,45598.06
2022-12-27T16:18:50.506Z,45622.06
2022-12-27T16:21:36.635Z,45632.06
2022-12-27T16:24:20.114Z,45618.06
2022-12-27T16:26:52.938Z,45630.06
2022-12-27T16:29:22.943Z,45634.06
2022-12-27T16:31:51.441Z,45626.06
2022-12-27T16:34:24.120Z,45618.06
2022-12-27T16:36:53.428Z,45610.06
2022-12-27T16:39:48.842Z,45634.06
2022-12-27T16:42:18.757Z,45626.06
2022-12-27T16:44:54.941Z,45622.06
2022-12-27T16:47:44.414Z,45630.06
2022-12-27T16:50:29.660Z,45628.06
2022-12-27T16:53:05.140Z,45610.06
2022-12-27T16:55:52.865Z,45638.06
2022-12-27T16:58:32.267Z,45626.06
2022-12-27T17:01:01.090Z,45628.06
2022-12-27T17:03:36.786Z,45612.06
2022-12-27T17:06:32.349Z,45632.06
2022-12-27T17:09:08.882Z,45608.06
2022-12-27T17:11:47.465Z,45634.06
2022-12-27T17:14:31.571Z,45618.06
2022-12-27T17:17:14.465Z,45638.06
2022-12-27T17:20:01.078Z,45632.06
2022-12-27T17:22:34.171Z,45610.06
2022-12-27T17:25:02.321Z,45630.06
2022-12-27T17:27:41.237Z,45638.06
2022-12-27T17:30:32.183Z,45646.03
2022-12-27T17:33:39.789Z,45614.06
2022-12-27T17:36:40.262Z,45646.03
2022-12-27T17:39:42.122Z,45612.06
2022-12-27T17:42:55.144Z,45622.06
2022-12-27T17:45:43.232Z,45638.06
2022-12-27T17:48:21.740Z,45626.06
2022-12-27T17:50:48.956Z,45628.06
2022-12-27T17:53:37.736Z,45630.06
2022-12-27T17:56:28.886Z,45622.06
2022-12-27T17:59:25.657Z,45652.03
2022-12-27T18:01:55.522Z,45624.06
2022-12-27T18:04:25.687Z,45630.06
2022-12-27T18:06:57.123Z,45622.06
2022-12-27T18:09:34.275Z,45640.03
2022-12-27T18:12:04.688Z,45666.03
2022-12-27T18:14:33.784Z,45626.06
2022-12-27T18:17:00.608Z,45662.03
2022-12-27T18:19:31.389Z,45628.06
2022-12-27T18:22:02.474Z,45630.06
2022-12-27T18:24:33.395Z,45626.06
2022-12-27T18:27:15.858Z,45606.06
2022-12-27T18:29:42.840Z,45650.03
2022-12-27T18:32:14.343Z,45652.03
2022-12-27T18:34:54.419Z,45646.03
2022-12-27T18:37:24.904Z,45652.03
2022-12-27T18:39:54.884Z,45644.03
2022-12-27T18:42:31.029Z,45642.03
2022-12-27T18:45:02.423Z,45630.06
2022-12-27T18:47:28.988Z,45644.03
2022-12-27T18:49:59.529Z,45648.03
2022-12-27T18:52:32.674Z,45630.06
2022-12-27T18:55:08.176Z,45654.03
2022-12-27T18:57:36.282Z,45680.03
2022-12-27T19:00:17.708Z,45658.03
2022-12-27T19:02:44.966Z,45648.03
2022-12-27T19:05:25.197Z,45670.03
2022-12-27T19:08:00.700Z,45650.03
2022-12-27T19:10:29.484Z,45646.03
2022-12-27T19:12:57.221Z,45650.03
2022-12-27T19:15:28.491Z,45662.03
2022-12-27T19:17:59.156Z,45646.03
2022-12-27T19:20:29.071Z,45638.06
2022-12-27T19:22:57.185Z,45650.03
2022-12-27T19:25:33.283Z,45648.03
2022-12-27T19:28:09.980Z,45658.03
2022-12-27T19:30:41.595Z,45638.06
2022-12-27T19:33:29.612Z,45646.03
2022-12-27T19:35:56.773Z,45640.03
2022-12-27T19:38:26.615Z,45654.03
2022-12-27T19:41:02.841Z,45634.06
2022-12-27T19:43:35.949Z,45658.03
2022-12-27T19:46:02.411Z,45658.03
2022-12-27T19:48:28.795Z,45616.06
2022-12-27T19:50:55.431Z,45642.03
2022-12-27T19:53:30.788Z,45666.03
2022-12-27T19:55:58.212Z,45676.03
2022-12-27T19:58:26.613Z,45644.03
2022-12-27T20:00:53.104Z,45630.06
2022-12-27T20:03:19.998Z,45646.03
2022-12-27T20:06:14.193Z,45628.06
2022-12-27T20:08:33.449Z,45662.03
2022-12-27T20:11:01.354Z,45656.03
2022-12-27T20:13:27.927Z,45630.06
2022-12-27T20:15:56.423Z,45650.03
2022-12-27T20:18:23.728Z,45638.06
2022-12-27T20:20:51.343Z,45644.03
2022-12-27T20:23:19.262Z,45654.03
2022-12-27T20:25:48.174Z,45668.03
2022-12-27T20:28:15.793Z,45644.03
2022-12-27T20:30:44.158Z,45640.03
2022-12-27T20:33:11.196Z,45646.03
2022-12-27T20:35:37.884Z,45648.03
2022-12-27T20:38:05.273Z,45674.03
2022-12-27T20:40:31.750Z,45650.03
2022-12-27T20:42:58.997Z,45668.03
2022-12-27T20:45:25.465Z,45652.03
2022-12-27T20:47:51.893Z,45636.06
2022-12-27T20:50:18.811Z,45658.03
2022-12-27T20:52:45.184Z,45652.03
2022-12-27T20:55:12.669Z,45646.03
2022-12-27T20:57:39.323Z,45650.03
2022-12-27T21:00:08.300Z,45654.03
2022-12-27T21:02:35.230Z,45654.03
2022-12-27T21:05:01.796Z,45662.03
2022-12-27T21:07:28.265Z,45644.03
2022-12-27T21:09:55.256Z,45648.03
2022-12-27T21:12:21.636Z,45646.03
2022-12-27T21:14:49.863Z,45666.03
2022-12-27T21:17:17.202Z,45652.03
2022-12-27T21:19:43.810Z,45654.03
2022-12-27T21:22:10.282Z,45652.03
2022-12-27T21:24:36.757Z,45666.03
2022-12-27T21:27:03.218Z,45670.03
2022-12-27T21:29:29.618Z,45682.00
2022-12-27T21:31:56.056Z,45644.03
2022-12-27T21:34:22.760Z,45658.03
2022-12-27T21:36:54.345Z,45646.03
2022-12-27T21:39:21.439Z,45674.03
2022-12-27T21:41:47.906Z,45658.03
2022-12-27T21:44:14.440Z,45658.03
2022-12-27T21:46:42.213Z,45656.03
2022-12-27T21:49:12.360Z,45672.03
2022-12-27T21:51:40.488Z,45668.03
2022-12-27T21:54:07.571Z,45642.03
2022-12-27T21:56:34.085Z,45658.03
2022-12-27T21:59:02.916Z,45658.03
2022-12-27T22:01:31.498Z,45658.03
2022-12-27T22:04:17.776Z,45666.03
2022-12-27T22:06:47.096Z,45682.00
2022-12-27T22:09:14.235Z,45652.03
2022-12-27T22:11:40.659Z,45666.03
2022-12-27T22:14:07.138Z,45662.03
2022-12-27T22:16:36.275Z,45666.03
2022-12-27T22:19:05.546Z,45658.03
2022-12-27T22:21:34.037Z,45656.03
2022-12-27T22:24:01.854Z,45672.03
2022-12-27T22:26:31.848Z,45654.03
2022-12-27T22:28:58.652Z,45660.03
2022-12-27T22:31:29.951Z,45638.06
2022-12-27T22:33:56.515Z,45674.03
2022-12-27T22:36:24.588Z,45654.03
2022-12-27T22:38:53.572Z,45652.03
2022-12-27T22:41:28.899Z,45650.03
2022-12-27T22:44:00.657Z,45662.03
2022-12-27T22:46:39.382Z,45646.03
2022-12-27T22:49:15.426Z,45674.03
2022-12-27T22:51:42.267Z,45642.03
2022-12-27T22:54:08.640Z,45662.03
2022-12-27T22:56:37.709Z,45666.03
2022-12-27T22:59:16.301Z,45670.03
2022-12-27T23:01:43.788Z,45686.00
2022-12-27T23:04:12.382Z,45658.03
2022-12-27T23:06:40.034Z,45656.03
2022-12-27T23:09:07.500Z,45648.03
2022-12-27T23:11:37.737Z,45678.03
2022-12-27T23:14:09.198Z,45672.03
2022-12-27T23:16:37.990Z,45658.03
2022-12-27T23:19:05.349Z,45654.03
2022-12-27T23:21:31.794Z,45656.03
2022-12-27T23:23:58.307Z,45650.03
2022-12-27T23:26:24.716Z,45654.03
2022-12-27T23:28:53.154Z,45658.03
2022-12-27T23:31:22.195Z,45664.03
2022-12-27T23:33:49.174Z,45670.03
2022-12-27T23:36:15.553Z,45672.03
2022-12-27T23:38:42.899Z,45658.03
2022-12-27T23:41:14.746Z,45634.06
2022-12-27T23:43:57.196Z,45672.03
2022-12-27T23:46:29.981Z,45648.03
2022-12-27T23:48:58.110Z,45670.03
2022-12-27T23:51:25.743Z,45650.03
2022-12-27T23:53:52.694Z,45646.03
2022-12-27T23:56:22.006Z,45646.03
2022-12-27T23:58:50.061Z,45644.03
